sensor_id;sensor_type;location;lat;lon;timestamp;pressure;altitude;pressure_sealevel;temperature;humidity
40948;BME280;49382;-25.924;28.194;2023-05-22T00:01:49;85208.27;;;13.24;28.94
40948;BME280;49382;-25.924;28.194;2023-05-22T00:04:15;85205.24;;;13.02;29.93
40948;BME280;49382;-25.924;28.194;2023-05-22T00:06:42;85204.51;;;12.79;30.67
40948;BME280;49382;-25.924;28.194;2023-05-22T00:09:05;85202.81;;;12.64;31.05
40948;BME280;49382;-25.924;28.194;2023-05-22T00:11:31;85196.80;;;12.54;31.02
40948;BME280;49382;-25.924;28.194;2023-05-22T00:13:56;85196.07;;;13.09;30.45
40948;BME280;49382;-25.924;28.194;2023-05-22T00:16:21;85193.38;;;13.62;29.86
40948;BME280;49382;-25.924;28.194;2023-05-22T00:18:46;85198.90;;;13.04;29.76
40948;BME280;49382;-25.924;28.194;2023-05-22T00:21:12;85197.42;;;12.86;30.47
40948;BME280;49382;-25.924;28.194;2023-05-22T00:23:38;85198.40;;;13.02;30.16
40948;BME280;49382;-25.924;28.194;2023-05-22T00:26:03;85202.77;;;13.28;29.82
40948;BME280;49382;-25.924;28.194;2023-05-22T00:28:29;85201.69;;;13.13;30.32
40948;BME280;49382;-25.924;28.194;2023-05-22T00:30:54;85199.58;;;14.14;28.11
40948;BME280;49382;-25.924;28.194;2023-05-22T00:33:20;85200.41;;;14.37;26.58
40948;BME280;49382;-25.924;28.194;2023-05-22T00:35:46;85202.49;;;13.29;29.59
40948;BME280;49382;-25.924;28.194;2023-05-22T00:40:37;85200.95;;;13.15;29.74
40948;BME280;49382;-25.924;28.194;2023-05-22T00:43:02;85201.79;;;13.15;29.13
40948;BME280;49382;-25.924;28.194;2023-05-22T00:45:28;85204.43;;;13.20;28.96
40948;BME280;49382;-25.924;28.194;2023-05-22T00:47:54;85206.92;;;13.34;29.28
40948;BME280;49382;-25.924;28.194;2023-05-22T00:50:20;85203.91;;;12.96;29.99
40948;BME280;49382;-25.924;28.194;2023-05-22T00:52:45;85207.09;;;13.46;29.26
40948;BME280;49382;-25.924;28.194;2023-05-22T00:55:10;85204.56;;;14.18;28.81
40948;BME280;49382;-25.924;28.194;2023-05-22T00:57:36;85198.52;;;13.26;28.01
40948;BME280;49382;-25.924;28.194;2023-05-22T01:00:00;85198.58;;;13.44;27.27
40948;BME280;49382;-25.924;28.194;2023-05-22T01:02:25;85196.28;;;13.36;27.10
40948;BME280;49382;-25.924;28.194;2023-05-22T01:04:50;85189.96;;;13.31;26.32
40948;BME280;49382;-25.924;28.194;2023-05-22T01:07:15;85186.01;;;13.98;24.84
40948;BME280;49382;-25.924;28.194;2023-05-22T01:09:41;85185.82;;;13.98;24.64
40948;BME280;49382;-25.924;28.194;2023-05-22T01:12:12;85189.19;;;14.38;24.03
40948;BME280;49382;-25.924;28.194;2023-05-22T01:14:39;85191.51;;;14.33;26.64
40948;BME280;49382;-25.924;28.194;2023-05-22T01:17:02;85194.98;;;13.04;28.33
40948;BME280;49382;-25.924;28.194;2023-05-22T01:21:57;85198.19;;;12.33;29.69
40948;BME280;49382;-25.924;28.194;2023-05-22T01:24:26;85201.47;;;12.16;30.20
40948;BME280;49382;-25.924;28.194;2023-05-22T01:29:12;85202.06;;;11.69;31.70
40948;BME280;49382;-25.924;28.194;2023-05-22T01:31:30;85191.42;;;12.20;31.02
40948;BME280;49382;-25.924;28.194;2023-05-22T01:33:56;85187.05;;;12.34;31.30
40948;BME280;49382;-25.924;28.194;2023-05-22T01:36:20;85184.74;;;12.02;31.19
40948;BME280;49382;-25.924;28.194;2023-05-22T01:38:44;85190.51;;;10.97;32.08
40948;BME280;49382;-25.924;28.194;2023-05-22T01:41:09;85191.39;;;11.31;31.83
40948;BME280;49382;-25.924;28.194;2023-05-22T01:43:35;85194.39;;;11.67;31.58
40948;BME280;49382;-25.924;28.194;2023-05-22T01:46:00;85188.33;;;12.79;30.47
40948;BME280;49382;-25.924;28.194;2023-05-22T01:48:25;85188.56;;;12.37;29.92
40948;BME280;49382;-25.924;28.194;2023-05-22T01:50:52;85192.89;;;12.03;30.46
40948;BME280;49382;-25.924;28.194;2023-05-22T01:53:22;85196.47;;;12.26;30.08
40948;BME280;49382;-25.924;28.194;2023-05-22T01:55:47;85189.74;;;12.54;30.98
40948;BME280;49382;-25.924;28.194;2023-05-22T01:58:15;85188.68;;;12.54;30.74
40948;BME280;49382;-25.924;28.194;2023-05-22T02:00:32;85193.84;;;13.18;29.70
40948;BME280;49382;-25.924;28.194;2023-05-22T02:03:02;85198.25;;;13.05;29.98
40948;BME280;49382;-25.924;28.194;2023-05-22T02:05:23;85195.05;;;12.74;30.53
40948;BME280;49382;-25.924;28.194;2023-05-22T02:07:48;85196.17;;;13.08;30.17
40948;BME280;49382;-25.924;28.194;2023-05-22T02:10:13;85187.73;;;12.90;29.45
40948;BME280;49382;-25.924;28.194;2023-05-22T02:12:39;85182.94;;;12.42;29.67
40948;BME280;49382;-25.924;28.194;2023-05-22T02:15:05;85184.16;;;12.68;28.37
40948;BME280;49382;-25.924;28.194;2023-05-22T02:17:30;85187.85;;;12.77;28.74
40948;BME280;49382;-25.924;28.194;2023-05-22T02:19:55;85181.98;;;12.98;28.22
40948;BME280;49382;-25.924;28.194;2023-05-22T02:22:21;85180.54;;;13.55;27.33
40948;BME280;49382;-25.924;28.194;2023-05-22T02:24:47;85182.74;;;13.65;27.15
40948;BME280;49382;-25.924;28.194;2023-05-22T02:27:12;85183.89;;;13.49;26.91
40948;BME280;49382;-25.924;28.194;2023-05-22T02:29:37;85180.55;;;13.46;26.66
40948;BME280;49382;-25.924;28.194;2023-05-22T02:32:02;85175.80;;;13.78;26.58
40948;BME280;49382;-25.924;28.194;2023-05-22T02:34:28;85175.35;;;13.64;26.53
40948;BME280;49382;-25.924;28.194;2023-05-22T02:36:53;85173.23;;;13.34;27.03
40948;BME280;49382;-25.924;28.194;2023-05-22T02:39:19;85170.55;;;13.53;26.29
40948;BME280;49382;-25.924;28.194;2023-05-22T02:41:44;85168.97;;;13.95;25.47
40948;BME280;49382;-25.924;28.194;2023-05-22T02:44:10;85168.59;;;13.68;25.79
40948;BME280;49382;-25.924;28.194;2023-05-22T02:46:35;85164.40;;;13.87;25.18
40948;BME280;49382;-25.924;28.194;2023-05-22T02:49:01;85165.18;;;13.99;24.78
40948;BME280;49382;-25.924;28.194;2023-05-22T02:51:27;85169.75;;;13.90;24.63
40948;BME280;49382;-25.924;28.194;2023-05-22T02:53:53;85172.17;;;13.90;24.71
40948;BME280;49382;-25.924;28.194;2023-05-22T02:56:18;85171.83;;;14.48;24.31
40948;BME280;49382;-25.924;28.194;2023-05-22T02:58:43;85166.34;;;14.57;24.42
40948;BME280;49382;-25.924;28.194;2023-05-22T03:01:08;85167.36;;;14.12;24.96
40948;BME280;49382;-25.924;28.194;2023-05-22T03:03:34;85172.56;;;14.14;25.24
40948;BME280;49382;-25.924;28.194;2023-05-22T03:05:59;85172.75;;;14.02;26.99
40948;BME280;49382;-25.924;28.194;2023-05-22T03:08:24;85175.48;;;13.23;27.31
40948;BME280;49382;-25.924;28.194;2023-05-22T03:10:49;85175.22;;;13.40;26.81
40948;BME280;49382;-25.924;28.194;2023-05-22T03:13:15;85176.53;;;13.74;26.54
40948;BME280;49382;-25.924;28.194;2023-05-22T03:15:40;85177.89;;;13.75;26.95
40948;BME280;49382;-25.924;28.194;2023-05-22T03:18:06;85183.56;;;13.11;27.15
40948;BME280;49382;-25.924;28.194;2023-05-22T03:20:31;85190.78;;;12.85;27.78
40948;BME280;49382;-25.924;28.194;2023-05-22T03:22:57;85199.32;;;13.34;27.75
40948;BME280;49382;-25.924;28.194;2023-05-22T03:25:22;85198.75;;;12.61;27.67
40948;BME280;49382;-25.924;28.194;2023-05-22T03:27:47;85198.16;;;13.04;27.74
40948;BME280;49382;-25.924;28.194;2023-05-22T03:30:13;85195.01;;;13.59;27.76
40948;BME280;49382;-25.924;28.194;2023-05-22T03:32:38;85196.80;;;13.28;28.03
40948;BME280;49382;-25.924;28.194;2023-05-22T03:35:05;85196.01;;;12.92;28.30
40948;BME280;49382;-25.924;28.194;2023-05-22T03:37:29;85197.13;;;12.77;28.63
40948;BME280;49382;-25.924;28.194;2023-05-22T03:39:54;85196.73;;;12.64;28.62
40948;BME280;49382;-25.924;28.194;2023-05-22T03:42:20;85195.66;;;13.12;27.59
40948;BME280;49382;-25.924;28.194;2023-05-22T03:44:46;85195.35;;;13.66;26.85
40948;BME280;49382;-25.924;28.194;2023-05-22T03:47:11;85198.74;;;13.12;28.03
40948;BME280;49382;-25.924;28.194;2023-05-22T03:49:36;85201.32;;;12.51;28.52
40948;BME280;49382;-25.924;28.194;2023-05-22T03:52:03;85206.85;;;12.83;28.10
40948;BME280;49382;-25.924;28.194;2023-05-22T03:54:27;85209.23;;;13.13;27.49
40948;BME280;49382;-25.924;28.194;2023-05-22T03:56:54;85212.22;;;13.43;27.18
40948;BME280;49382;-25.924;28.194;2023-05-22T03:59:18;85214.49;;;13.52;26.96
40948;BME280;49382;-25.924;28.194;2023-05-22T04:01:43;85213.51;;;13.81;26.14
40948;BME280;49382;-25.924;28.194;2023-05-22T04:04:09;85219.27;;;12.54;28.36
40948;BME280;49382;-25.924;28.194;2023-05-22T04:06:35;85227.03;;;12.35;28.39
40948;BME280;49382;-25.924;28.194;2023-05-22T04:09:00;85232.94;;;12.26;28.73
40948;BME280;49382;-25.924;28.194;2023-05-22T04:11:26;85228.57;;;11.75;29.17
40948;BME280;49382;-25.924;28.194;2023-05-22T04:13:51;85234.43;;;12.12;28.88
40948;BME280;49382;-25.924;28.194;2023-05-22T04:16:17;85241.33;;;11.14;30.55
40948;BME280;49382;-25.924;28.194;2023-05-22T04:18:42;85252.22;;;11.63;30.55
40948;BME280;49382;-25.924;28.194;2023-05-22T04:21:08;85256.10;;;11.36;31.05
40948;BME280;49382;-25.924;28.194;2023-05-22T04:23:34;85255.37;;;11.51;30.61
40948;BME280;49382;-25.924;28.194;2023-05-22T04:26:00;85258.84;;;12.30;29.23
40948;BME280;49382;-25.924;28.194;2023-05-22T04:28:25;85261.58;;;12.86;29.00
40948;BME280;49382;-25.924;28.194;2023-05-22T04:30:51;85265.87;;;12.79;29.39
40948;BME280;49382;-25.924;28.194;2023-05-22T04:33:16;85264.41;;;13.03;28.88
40948;BME280;49382;-25.924;28.194;2023-05-22T04:35:42;85266.19;;;12.85;28.94
40948;BME280;49382;-25.924;28.194;2023-05-22T04:38:08;85264.09;;;12.36;29.37
40948;BME280;49382;-25.924;28.194;2023-05-22T04:40:33;85257.55;;;12.27;29.32
40948;BME280;49382;-25.924;28.194;2023-05-22T04:42:59;85256.29;;;12.16;29.64
40948;BME280;49382;-25.924;28.194;2023-05-22T04:45:24;85256.87;;;12.45;29.20
40948;BME280;49382;-25.924;28.194;2023-05-22T04:47:50;85253.07;;;13.55;28.49
40948;BME280;49382;-25.924;28.194;2023-05-22T04:50:15;85259.06;;;13.20;28.31
40948;BME280;49382;-25.924;28.194;2023-05-22T04:52:40;85266.68;;;13.16;28.49
40948;BME280;49382;-25.924;28.194;2023-05-22T04:55:06;85266.73;;;13.52;27.88
40948;BME280;49382;-25.924;28.194;2023-05-22T04:57:31;85268.04;;;13.79;27.41
40948;BME280;49382;-25.924;28.194;2023-05-22T04:59:57;85273.57;;;13.09;28.17
40948;BME280;49382;-25.924;28.194;2023-05-22T05:02:22;85274.50;;;13.63;27.79
40948;BME280;49382;-25.924;28.194;2023-05-22T05:04:47;85276.99;;;13.31;28.32
40948;BME280;49382;-25.924;28.194;2023-05-22T05:07:13;85285.95;;;12.82;29.89
40948;BME280;49382;-25.924;28.194;2023-05-22T05:09:39;85286.57;;;12.68;29.94
40948;BME280;49382;-25.924;28.194;2023-05-22T05:12:05;85285.19;;;12.28;31.04
40948;BME280;49382;-25.924;28.194;2023-05-22T05:14:30;85286.85;;;11.64;32.29
40948;BME280;49382;-25.924;28.194;2023-05-22T05:16:55;85291.60;;;12.35;31.27
40948;BME280;49382;-25.924;28.194;2023-05-22T05:19:20;85294.21;;;12.80;30.52
40948;BME280;49382;-25.924;28.194;2023-05-22T05:21:46;85292.91;;;13.52;30.20
40948;BME280;49382;-25.924;28.194;2023-05-22T05:24:10;85293.32;;;13.43;30.09
40948;BME280;49382;-25.924;28.194;2023-05-22T05:26:36;85291.47;;;13.58;30.11
40948;BME280;49382;-25.924;28.194;2023-05-22T05:29:01;85291.92;;;13.95;30.21
40948;BME280;49382;-25.924;28.194;2023-05-22T05:31:26;85291.80;;;13.53;31.15
40948;BME280;49382;-25.924;28.194;2023-05-22T05:33:51;85298.67;;;13.84;29.91
40948;BME280;49382;-25.924;28.194;2023-05-22T05:36:17;85303.47;;;14.08;29.39
40948;BME280;49382;-25.924;28.194;2023-05-22T05:38:42;85298.72;;;13.75;30.46
40948;BME280;49382;-25.924;28.194;2023-05-22T05:41:08;85292.59;;;13.91;31.21
40948;BME280;49382;-25.924;28.194;2023-05-22T05:43:34;85298.87;;;14.10;30.99
40948;BME280;49382;-25.924;28.194;2023-05-22T05:45:59;85303.05;;;14.57;31.11
40948;BME280;49382;-25.924;28.194;2023-05-22T05:48:24;85306.15;;;14.55;31.16
40948;BME280;49382;-25.924;28.194;2023-05-22T05:50:50;85309.61;;;14.90;30.53
40948;BME280;49382;-25.924;28.194;2023-05-22T05:53:15;85311.27;;;15.03;29.83
40948;BME280;49382;-25.924;28.194;2023-05-22T05:55:40;85314.83;;;15.01;29.24
40948;BME280;49382;-25.924;28.194;2023-05-22T05:58:06;85318.32;;;15.52;30.40
40948;BME280;49382;-25.924;28.194;2023-05-22T06:00:31;85317.64;;;16.39;29.53
40948;BME280;49382;-25.924;28.194;2023-05-22T06:02:57;85316.70;;;16.26;29.17
40948;BME280;49382;-25.924;28.194;2023-05-22T06:05:22;85320.92;;;16.55;28.56
40948;BME280;49382;-25.924;28.194;2023-05-22T06:07:48;85327.33;;;16.68;27.90
40948;BME280;49382;-25.924;28.194;2023-05-22T06:10:13;85332.96;;;16.71;26.86
40948;BME280;49382;-25.924;28.194;2023-05-22T06:12:39;85335.85;;;16.85;25.80
40948;BME280;49382;-25.924;28.194;2023-05-22T06:15:05;85337.75;;;17.37;25.69
40948;BME280;49382;-25.924;28.194;2023-05-22T06:17:29;85336.46;;;17.14;24.65
40948;BME280;49382;-25.924;28.194;2023-05-22T06:19:55;85335.50;;;17.43;24.47
40948;BME280;49382;-25.924;28.194;2023-05-22T06:22:20;85342.70;;;17.53;24.82
40948;BME280;49382;-25.924;28.194;2023-05-22T06:24:46;85343.64;;;18.44;23.66
40948;BME280;49382;-25.924;28.194;2023-05-22T06:27:11;85350.75;;;18.42;24.25
40948;BME280;49382;-25.924;28.194;2023-05-22T06:29:36;85353.99;;;18.90;25.08
40948;BME280;49382;-25.924;28.194;2023-05-22T06:32:04;85357.83;;;18.79;24.29
40948;BME280;49382;-25.924;28.194;2023-05-22T06:34:27;85358.57;;;19.13;25.63
40948;BME280;49382;-25.924;28.194;2023-05-22T06:36:52;85366.08;;;18.89;24.68
40948;BME280;49382;-25.924;28.194;2023-05-22T06:39:18;85364.71;;;19.48;22.94
40948;BME280;49382;-25.924;28.194;2023-05-22T06:41:42;85367.26;;;20.13;22.12
40948;BME280;49382;-25.924;28.194;2023-05-22T06:44:08;85367.82;;;20.59;22.74
40948;BME280;49382;-25.924;28.194;2023-05-22T06:46:33;85369.89;;;20.66;21.28
40948;BME280;49382;-25.924;28.194;2023-05-22T06:48:58;85379.10;;;22.24;20.30
40948;BME280;49382;-25.924;28.194;2023-05-22T06:51:24;85386.02;;;26.04;17.13
40948;BME280;49382;-25.924;28.194;2023-05-22T06:53:49;85400.09;;;31.28;12.86
40948;BME280;49382;-25.924;28.194;2023-05-22T06:56:14;85402.48;;;33.88;10.65
40948;BME280;49382;-25.924;28.194;2023-05-22T06:58:39;85405.94;;;36.08;9.06
40948;BME280;49382;-25.924;28.194;2023-05-22T07:01:05;85404.41;;;38.34;8.08
40948;BME280;49382;-25.924;28.194;2023-05-22T07:03:31;85413.67;;;40.10;7.30
40948;BME280;49382;-25.924;28.194;2023-05-22T07:05:56;85408.92;;;41.22;6.07
40948;BME280;49382;-25.924;28.194;2023-05-22T07:08:22;85405.92;;;41.74;5.18
40948;BME280;49382;-25.924;28.194;2023-05-22T07:10:48;85407.25;;;42.86;5.31
40948;BME280;49382;-25.924;28.194;2023-05-22T07:13:14;85411.75;;;43.09;4.65
40948;BME280;49382;-25.924;28.194;2023-05-22T07:15:40;85412.71;;;43.51;4.60
40948;BME280;49382;-25.924;28.194;2023-05-22T07:18:05;85409.10;;;44.53;4.13
40948;BME280;49382;-25.924;28.194;2023-05-22T07:20:31;85405.22;;;44.13;3.79
40948;BME280;49382;-25.924;28.194;2023-05-22T07:22:57;85405.67;;;44.47;3.74
40948;BME280;49382;-25.924;28.194;2023-05-22T07:25:23;85411.46;;;48.02;2.87
40948;BME280;49382;-25.924;28.194;2023-05-22T07:27:49;85410.86;;;47.31;2.87
40948;BME280;49382;-25.924;28.194;2023-05-22T07:30:14;85412.12;;;45.41;3.23
40948;BME280;49382;-25.924;28.194;2023-05-22T07:32:40;85416.93;;;47.55;2.48
40948;BME280;49382;-25.924;28.194;2023-05-22T07:35:07;85414.15;;;46.81;2.81
40948;BME280;49382;-25.924;28.194;2023-05-22T07:37:32;85416.93;;;47.16;2.75
40948;BME280;49382;-25.924;28.194;2023-05-22T07:39:57;85418.03;;;47.65;2.78
40948;BME280;49382;-25.924;28.194;2023-05-22T07:42:23;85408.44;;;46.31;3.02
40948;BME280;49382;-25.924;28.194;2023-05-22T07:44:49;85408.33;;;47.75;2.68
40948;BME280;49382;-25.924;28.194;2023-05-22T07:47:15;85406.87;;;48.11;3.06
40948;BME280;49382;-25.924;28.194;2023-05-22T07:49:40;85407.30;;;46.86;2.87
40948;BME280;49382;-25.924;28.194;2023-05-22T07:52:06;85408.95;;;47.91;2.51
40948;BME280;49382;-25.924;28.194;2023-05-22T07:54:31;85409.90;;;48.43;2.79
40948;BME280;49382;-25.924;28.194;2023-05-22T07:56:57;85409.38;;;48.94;2.31
40948;BME280;49382;-25.924;28.194;2023-05-22T07:59:22;85412.29;;;49.15;2.58
40948;BME280;49382;-25.924;28.194;2023-05-22T08:01:48;85411.82;;;50.47;1.97
40948;BME280;49382;-25.924;28.194;2023-05-22T08:04:13;85409.11;;;49.42;1.90
40948;BME280;49382;-25.924;28.194;2023-05-22T08:06:39;85413.69;;;52.05;1.99
40948;BME280;49382;-25.924;28.194;2023-05-22T08:09:05;85415.51;;;51.28;1.71
40948;BME280;49382;-25.924;28.194;2023-05-22T08:11:30;85414.76;;;50.35;1.83
40948;BME280;49382;-25.924;28.194;2023-05-22T08:13:56;85414.10;;;50.13;1.56
40948;BME280;49382;-25.924;28.194;2023-05-22T08:16:22;85410.36;;;51.06;1.42
40948;BME280;49382;-25.924;28.194;2023-05-22T08:18:47;85408.38;;;51.58;1.63
40948;BME280;49382;-25.924;28.194;2023-05-22T08:21:13;85409.07;;;50.13;1.46
40948;BME280;49382;-25.924;28.194;2023-05-22T08:23:39;85407.42;;;52.84;1.38
40948;BME280;49382;-25.924;28.194;2023-05-22T08:26:05;85404.77;;;50.06;1.78
40948;BME280;49382;-25.924;28.194;2023-05-22T08:28:30;85399.59;;;51.35;1.14
40948;BME280;49382;-25.924;28.194;2023-05-22T08:30:55;85400.82;;;52.72;0.54
40948;BME280;49382;-25.924;28.194;2023-05-22T08:33:21;85400.84;;;52.23;1.14
40948;BME280;49382;-25.924;28.194;2023-05-22T08:35:47;85400.56;;;53.36;0.48
40948;BME280;49382;-25.924;28.194;2023-05-22T08:38:13;85397.75;;;52.28;1.06
40948;BME280;49382;-25.924;28.194;2023-05-22T08:40:38;85395.50;;;54.63;0.32
40948;BME280;49382;-25.924;28.194;2023-05-22T08:43:04;85396.36;;;54.96;0.52
40948;BME280;49382;-25.924;28.194;2023-05-22T08:45:29;85394.17;;;54.01;0.13
40948;BME280;49382;-25.924;28.194;2023-05-22T08:47:57;85392.28;;;52.10;0.63
40948;BME280;49382;-25.924;28.194;2023-05-22T08:50:21;85399.74;;;55.10;0.42
40948;BME280;49382;-25.924;28.194;2023-05-22T08:52:49;85396.67;;;55.45;0.48
40948;BME280;49382;-25.924;28.194;2023-05-22T08:55:12;85385.01;;;51.59;1.19
40948;BME280;49382;-25.924;28.194;2023-05-22T08:57:38;85383.52;;;51.24;0.21
40948;BME280;49382;-25.924;28.194;2023-05-22T09:00:03;85382.17;;;54.31;0.53
40948;BME280;49382;-25.924;28.194;2023-05-22T09:02:31;85371.21;;;46.61;1.83
40948;BME280;49382;-25.924;28.194;2023-05-22T09:04:54;85346.11;;;43.71;3.15
40948;BME280;49382;-25.924;28.194;2023-05-22T09:07:20;85333.33;;;37.87;4.53
40948;BME280;49382;-25.924;28.194;2023-05-22T09:09:45;85331.44;;;35.84;5.94
40948;BME280;49382;-25.924;28.194;2023-05-22T09:12:11;85327.97;;;33.55;9.32
40948;BME280;49382;-25.924;28.194;2023-05-22T09:14:40;85329.39;;;32.31;10.31
40948;BME280;49382;-25.924;28.194;2023-05-22T09:17:02;85324.08;;;31.04;9.87
40948;BME280;49382;-25.924;28.194;2023-05-22T09:19:28;85321.39;;;29.24;10.99
40948;BME280;49382;-25.924;28.194;2023-05-22T09:22:00;85324.15;;;27.63;13.54
40948;BME280;49382;-25.924;28.194;2023-05-22T09:24:19;85323.27;;;27.70;13.43
40948;BME280;49382;-25.924;28.194;2023-05-22T09:26:45;85316.86;;;27.35;11.73
40948;BME280;49382;-25.924;28.194;2023-05-22T09:29:10;85318.70;;;26.24;12.76
40948;BME280;49382;-25.924;28.194;2023-05-22T09:31:41;85320.87;;;28.59;11.50
40948;BME280;49382;-25.924;28.194;2023-05-22T09:34:02;85320.73;;;26.34;14.21
40948;BME280;49382;-25.924;28.194;2023-05-22T09:36:31;85315.23;;;25.36;13.49
40948;BME280;49382;-25.924;28.194;2023-05-22T09:38:53;85314.63;;;26.25;13.80
40948;BME280;49382;-25.924;28.194;2023-05-22T09:41:20;85314.11;;;25.50;14.41
40948;BME280;49382;-25.924;28.194;2023-05-22T09:43:49;85313.97;;;25.49;15.02
40948;BME280;49382;-25.924;28.194;2023-05-22T09:46:15;85314.01;;;25.09;13.71
40948;BME280;49382;-25.924;28.194;2023-05-22T09:48:36;85316.30;;;25.97;14.75
40948;BME280;49382;-25.924;28.194;2023-05-22T09:51:02;85313.67;;;26.48;14.21
40948;BME280;49382;-25.924;28.194;2023-05-22T09:53:28;85312.08;;;26.44;14.21
40948;BME280;49382;-25.924;28.194;2023-05-22T09:55:55;85310.27;;;26.06;13.94
40948;BME280;49382;-25.924;28.194;2023-05-22T09:58:19;85301.37;;;24.90;15.52
40948;BME280;49382;-25.924;28.194;2023-05-22T10:00:45;85301.40;;;24.73;15.57
40948;BME280;49382;-25.924;28.194;2023-05-22T10:03:11;85295.26;;;24.32;15.93
40948;BME280;49382;-25.924;28.194;2023-05-22T10:05:38;85292.46;;;25.38;15.39
40948;BME280;49382;-25.924;28.194;2023-05-22T10:08:06;85286.17;;;24.89;16.08
40948;BME280;49382;-25.924;28.194;2023-05-22T10:10:28;85280.62;;;23.34;16.44
40948;BME280;49382;-25.924;28.194;2023-05-22T10:12:56;85285.39;;;25.08;14.80
40948;BME280;49382;-25.924;28.194;2023-05-22T10:15:18;85281.05;;;23.64;15.49
40948;BME280;49382;-25.924;28.194;2023-05-22T10:17:44;85281.13;;;24.83;15.09
40948;BME280;49382;-25.924;28.194;2023-05-22T10:20:09;85283.86;;;25.54;15.87
40948;BME280;49382;-25.924;28.194;2023-05-22T10:22:36;85281.64;;;24.72;15.58
40948;BME280;49382;-25.924;28.194;2023-05-22T10:24:59;85283.83;;;24.61;16.38
40948;BME280;49382;-25.924;28.194;2023-05-22T10:27:24;85280.35;;;23.98;16.39
40948;BME280;49382;-25.924;28.194;2023-05-22T10:29:53;85277.11;;;23.47;16.12
40948;BME280;49382;-25.924;28.194;2023-05-22T10:32:20;85276.96;;;22.93;18.38
40948;BME280;49382;-25.924;28.194;2023-05-22T10:34:48;85275.76;;;24.00;17.32
40948;BME280;49382;-25.924;28.194;2023-05-22T10:37:16;85271.64;;;22.73;15.76
40948;BME280;49382;-25.924;28.194;2023-05-22T10:39:39;85268.02;;;23.75;16.60
40948;BME280;49382;-25.924;28.194;2023-05-22T10:41:57;85262.16;;;24.02;15.80
40948;BME280;49382;-25.924;28.194;2023-05-22T10:44:22;85259.68;;;24.52;14.70
40948;BME280;49382;-25.924;28.194;2023-05-22T10:46:48;85254.41;;;23.48;17.27
40948;BME280;49382;-25.924;28.194;2023-05-22T10:49:20;85247.99;;;25.14;16.81
40948;BME280;49382;-25.924;28.194;2023-05-22T10:51:39;85246.50;;;24.47;16.48
40948;BME280;49382;-25.924;28.194;2023-05-22T10:54:04;85248.47;;;25.06;16.97
40948;BME280;49382;-25.924;28.194;2023-05-22T10:56:33;85243.72;;;25.65;17.16
40948;BME280;49382;-25.924;28.194;2023-05-22T10:58:58;85239.34;;;24.74;17.26
40948;BME280;49382;-25.924;28.194;2023-05-22T11:01:23;85233.49;;;24.34;18.01
40948;BME280;49382;-25.924;28.194;2023-05-22T11:03:50;85227.66;;;24.71;17.45
40948;BME280;49382;-25.924;28.194;2023-05-22T11:08:36;85217.34;;;24.58;15.40
40948;BME280;49382;-25.924;28.194;2023-05-22T11:11:10;85214.24;;;23.85;16.31
40948;BME280;49382;-25.924;28.194;2023-05-22T11:13:27;85214.13;;;24.63;17.20
40948;BME280;49382;-25.924;28.194;2023-05-22T11:15:54;85209.71;;;24.59;14.75
40948;BME280;49382;-25.924;28.194;2023-05-22T11:18:18;85210.23;;;24.47;15.69
40948;BME280;49382;-25.924;28.194;2023-05-22T11:20:43;85206.97;;;22.86;16.61
40948;BME280;49382;-25.924;28.194;2023-05-22T11:23:10;85201.30;;;23.43;15.59
40948;BME280;49382;-25.924;28.194;2023-05-22T11:25:35;85197.00;;;24.21;15.20
40948;BME280;49382;-25.924;28.194;2023-05-22T11:28:02;85192.80;;;23.72;15.39
40948;BME280;49382;-25.924;28.194;2023-05-22T11:30:26;85191.50;;;24.61;15.29
40948;BME280;49382;-25.924;28.194;2023-05-22T11:32:51;85186.70;;;23.76;15.45
40948;BME280;49382;-25.924;28.194;2023-05-22T11:35:18;85186.04;;;24.15;15.07
40948;BME280;49382;-25.924;28.194;2023-05-22T11:37:42;85179.56;;;22.51;14.58
40948;BME280;49382;-25.924;28.194;2023-05-22T11:40:09;85182.92;;;24.08;14.35
40948;BME280;49382;-25.924;28.194;2023-05-22T11:42:34;85181.01;;;23.74;14.82
40948;BME280;49382;-25.924;28.194;2023-05-22T11:45:00;85178.23;;;24.26;15.48
40948;BME280;49382;-25.924;28.194;2023-05-22T11:47:27;85178.50;;;24.76;14.55
40948;BME280;49382;-25.924;28.194;2023-05-22T11:49:52;85172.90;;;24.18;14.79
40948;BME280;49382;-25.924;28.194;2023-05-22T11:52:17;85174.75;;;24.01;14.67
40948;BME280;49382;-25.924;28.194;2023-05-22T11:54:45;85176.05;;;23.72;15.89
40948;BME280;49382;-25.924;28.194;2023-05-22T11:57:09;85174.54;;;23.92;16.48
40948;BME280;49382;-25.924;28.194;2023-05-22T11:59:35;85171.95;;;24.23;14.93
40948;BME280;49382;-25.924;28.194;2023-05-22T12:02:00;85171.31;;;23.93;15.24
40948;BME280;49382;-25.924;28.194;2023-05-22T12:04:27;85161.36;;;23.51;14.41
40948;BME280;49382;-25.924;28.194;2023-05-22T12:06:51;85160.96;;;23.49;14.61
40948;BME280;49382;-25.924;28.194;2023-05-22T12:09:16;85165.42;;;23.12;14.98
40948;BME280;49382;-25.924;28.194;2023-05-22T12:11:46;85162.52;;;23.09;14.22
40948;BME280;49382;-25.924;28.194;2023-05-22T12:14:11;85159.04;;;23.15;14.20
40948;BME280;49382;-25.924;28.194;2023-05-22T12:16:34;85156.25;;;24.02;14.50
40948;BME280;49382;-25.924;28.194;2023-05-22T12:18:57;85152.81;;;23.09;14.12
40948;BME280;49382;-25.924;28.194;2023-05-22T12:21:25;85150.27;;;22.64;14.49
40948;BME280;49382;-25.924;28.194;2023-05-22T12:23:50;85154.16;;;22.10;14.82
40948;BME280;49382;-25.924;28.194;2023-05-22T12:26:15;85148.22;;;22.81;14.52
40948;BME280;49382;-25.924;28.194;2023-05-22T12:28:41;85144.00;;;23.16;14.23
40948;BME280;49382;-25.924;28.194;2023-05-22T12:31:07;85149.14;;;23.43;14.12
40948;BME280;49382;-25.924;28.194;2023-05-22T12:33:32;85147.70;;;23.43;14.05
40948;BME280;49382;-25.924;28.194;2023-05-22T12:35:59;85142.52;;;22.68;14.27
40948;BME280;49382;-25.924;28.194;2023-05-22T12:38:25;85140.66;;;22.65;14.44
40948;BME280;49382;-25.924;28.194;2023-05-22T12:40:50;85138.84;;;23.08;13.73
40948;BME280;49382;-25.924;28.194;2023-05-22T12:43:16;85136.88;;;23.15;14.47